sensor_id;sensor_type;location;lat;lon;timestamp;P1;durP1;ratioP1;P2;durP2;ratioP2
73585;SDS011;61865;50.232;18.614;2023-03-01T00:00:11;105.95;;;52.08;;
73585;SDS011;61865;50.232;18.614;2023-03-01T00:02:34;109.57;;;51.08;;
73585;SDS011;61865;50.232;18.614;2023-03-01T00:04:57;111.55;;;48.08;;
73585;SDS011;61865;50.232;18.614;2023-03-01T00:07:19;118.60;;;48.75;;
73585;SDS011;61865;50.232;18.614;2023-03-01T00:09:41;112.43;;;53.13;;
73585;SDS011;61865;50.232;18.614;2023-03-01T00:12:05;140.15;;;59.90;;
73585;SDS011;61865;50.232;18.614;2023-03-01T00:14:28;137.13;;;57.13;;
73585;SDS011;61865;50.232;18.614;2023-03-01T00:16:49;133.73;;;54.83;;
73585;SDS011;61865;50.232;18.614;2023-03-01T00:19:12;108.45;;;54.78;;
73585;SDS011;61865;50.232;18.614;2023-03-01T00:21:37;145.13;;;57.53;;
73585;SDS011;61865;50.232;18.614;2023-03-01T00:24:00;199.45;;;81.88;;
73585;SDS011;61865;50.232;18.614;2023-03-01T00:26:23;153.48;;;65.05;;
73585;SDS011;61865;50.232;18.614;2023-03-01T00:28:46;149.98;;;64.72;;
73585;SDS011;61865;50.232;18.614;2023-03-01T00:31:09;139.48;;;59.03;;
73585;SDS011;61865;50.232;18.614;2023-03-01T00:33:32;146.07;;;58.78;;
73585;SDS011;61865;50.232;18.614;2023-03-01T00:35:54;127.30;;;57.80;;
73585;SDS011;61865;50.232;18.614;2023-03-01T00:38:20;128.70;;;57.22;;
73585;SDS011;61865;50.232;18.614;2023-03-01T00:40:42;145.27;;;65.35;;
73585;SDS011;61865;50.232;18.614;2023-03-01T00:43:05;144.57;;;64.72;;
73585;SDS011;61865;50.232;18.614;2023-03-01T00:45:27;140.38;;;60.03;;
73585;SDS011;61865;50.232;18.614;2023-03-01T00:47:51;146.05;;;62.33;;
73585;SDS011;61865;50.232;18.614;2023-03-01T00:50:13;135.80;;;59.60;;
73585;SDS011;61865;50.232;18.614;2023-03-01T00:52:35;135.52;;;59.00;;
73585;SDS011;61865;50.232;18.614;2023-03-01T00:54:58;141.80;;;56.83;;
73585;SDS011;61865;50.232;18.614;2023-03-01T00:57:20;135.15;;;57.33;;
73585;SDS011;61865;50.232;18.614;2023-03-01T00:59:42;121.90;;;58.17;;
73585;SDS011;61865;50.232;18.614;2023-03-01T01:02:04;154.57;;;66.28;;
73585;SDS011;61865;50.232;18.614;2023-03-01T01:04:26;169.65;;;68.47;;
73585;SDS011;61865;50.232;18.614;2023-03-01T01:06:48;165.65;;;70.40;;
73585;SDS011;61865;50.232;18.614;2023-03-01T01:09:11;158.10;;;66.32;;
73585;SDS011;61865;50.232;18.614;2023-03-01T01:11:38;144.20;;;62.72;;
73585;SDS011;61865;50.232;18.614;2023-03-01T01:14:00;115.72;;;51.67;;
73585;SDS011;61865;50.232;18.614;2023-03-01T01:16:23;134.15;;;59.28;;
73585;SDS011;61865;50.232;18.614;2023-03-01T01:18:47;131.35;;;56.90;;
73585;SDS011;61865;50.232;18.614;2023-03-01T01:21:09;133.15;;;57.92;;
73585;SDS011;61865;50.232;18.614;2023-03-01T01:23:32;136.10;;;57.35;;
73585;SDS011;61865;50.232;18.614;2023-03-01T01:25:54;137.05;;;58.45;;
73585;SDS011;61865;50.232;18.614;2023-03-01T01:28:18;149.10;;;61.42;;
73585;SDS011;61865;50.232;18.614;2023-03-01T01:30:40;174.25;;;70.30;;
73585;SDS011;61865;50.232;18.614;2023-03-01T01:33:01;156.38;;;64.10;;
73585;SDS011;61865;50.232;18.614;2023-03-01T01:35:23;128.85;;;57.85;;
73585;SDS011;61865;50.232;18.614;2023-03-01T01:37:45;128.63;;;62.53;;
73585;SDS011;61865;50.232;18.614;2023-03-01T01:40:09;120.97;;;57.67;;
73585;SDS011;61865;50.232;18.614;2023-03-01T01:42:32;119.28;;;57.58;;
73585;SDS011;61865;50.232;18.614;2023-03-01T01:47:48;126.53;;;57.35;;
73585;SDS011;61865;50.232;18.614;2023-03-01T01:50:11;161.07;;;65.38;;
73585;SDS011;61865;50.232;18.614;2023-03-01T01:52:40;144.25;;;62.08;;
73585;SDS011;61865;50.232;18.614;2023-03-01T01:55:03;146.60;;;60.92;;
73585;SDS011;61865;50.232;18.614;2023-03-01T01:57:30;135.48;;;57.80;;
73585;SDS011;61865;50.232;18.614;2023-03-01T01:59:56;128.73;;;58.95;;
73585;SDS011;61865;50.232;18.614;2023-03-01T02:02:22;135.85;;;55.05;;
73585;SDS011;61865;50.232;18.614;2023-03-01T02:04:45;131.05;;;57.67;;
73585;SDS011;61865;50.232;18.614;2023-03-01T02:07:10;127.55;;;54.72;;
73585;SDS011;61865;50.232;18.614;2023-03-01T02:09:35;112.30;;;49.85;;
73585;SDS011;61865;50.232;18.614;2023-03-01T02:12:01;120.18;;;49.50;;
73585;SDS011;61865;50.232;18.614;2023-03-01T02:14:25;126.25;;;51.03;;
73585;SDS011;61865;50.232;18.614;2023-03-01T02:16:47;122.78;;;54.15;;
73585;SDS011;61865;50.232;18.614;2023-03-01T02:19:13;114.20;;;50.25;;
73585;SDS011;61865;50.232;18.614;2023-03-01T02:21:45;116.35;;;53.55;;
73585;SDS011;61865;50.232;18.614;2023-03-01T02:24:15;118.07;;;50.40;;
73585;SDS011;61865;50.232;18.614;2023-03-01T02:26:45;90.13;;;43.15;;
73585;SDS011;61865;50.232;18.614;2023-03-01T02:29:12;94.95;;;44.42;;
73585;SDS011;61865;50.232;18.614;2023-03-01T02:31:34;104.90;;;48.40;;
73585;SDS011;61865;50.232;18.614;2023-03-01T02:34:05;97.82;;;46.25;;
73585;SDS011;61865;50.232;18.614;2023-03-01T02:36:29;84.68;;;41.67;;
73585;SDS011;61865;50.232;18.614;2023-03-01T02:38:54;86.78;;;46.42;;
73585;SDS011;61865;50.232;18.614;2023-03-01T02:41:19;98.72;;;50.45;;
73585;SDS011;61865;50.232;18.614;2023-03-01T02:43:43;86.00;;;42.80;;
73585;SDS011;61865;50.232;18.614;2023-03-01T02:46:08;100.72;;;45.33;;
73585;SDS011;61865;50.232;18.614;2023-03-01T02:48:42;103.93;;;49.75;;
73585;SDS011;61865;50.232;18.614;2023-03-01T02:51:07;115.07;;;53.17;;
73585;SDS011;61865;50.232;18.614;2023-03-01T02:53:39;99.47;;;50.15;;
73585;SDS011;61865;50.232;18.614;2023-03-01T02:56:06;92.25;;;47.70;;
73585;SDS011;61865;50.232;18.614;2023-03-01T02:58:32;99.97;;;48.40;;
73585;SDS011;61865;50.232;18.614;2023-03-01T03:01:05;100.85;;;49.03;;
73585;SDS011;61865;50.232;18.614;2023-03-01T03:03:29;114.53;;;54.50;;
73585;SDS011;61865;50.232;18.614;2023-03-01T03:05:51;105.50;;;53.53;;
73585;SDS011;61865;50.232;18.614;2023-03-01T03:08:14;126.80;;;65.80;;
73585;SDS011;61865;50.232;18.614;2023-03-01T03:10:43;129.18;;;66.25;;
73585;SDS011;61865;50.232;18.614;2023-03-01T03:13:06;157.88;;;73.55;;
73585;SDS011;61865;50.232;18.614;2023-03-01T03:15:29;136.00;;;62.78;;
73585;SDS011;61865;50.232;18.614;2023-03-01T03:17:57;134.88;;;66.40;;
73585;SDS011;61865;50.232;18.614;2023-03-01T03:20:20;150.75;;;69.45;;
73585;SDS011;61865;50.232;18.614;2023-03-01T03:22:44;143.38;;;70.68;;
73585;SDS011;61865;50.232;18.614;2023-03-01T03:25:07;126.75;;;65.50;;
73585;SDS011;61865;50.232;18.614;2023-03-01T03:27:30;112.00;;;58.90;;
73585;SDS011;61865;50.232;18.614;2023-03-01T03:29:53;128.88;;;62.90;;
73585;SDS011;61865;50.232;18.614;2023-03-01T03:32:14;118.53;;;60.58;;
73585;SDS011;61865;50.232;18.614;2023-03-01T03:34:38;127.93;;;60.92;;
73585;SDS011;61865;50.232;18.614;2023-03-01T03:37:00;119.68;;;58.88;;
73585;SDS011;61865;50.232;18.614;2023-03-01T03:39:22;131.85;;;57.30;;
73585;SDS011;61865;50.232;18.614;2023-03-01T03:41:44;112.60;;;52.47;;
73585;SDS011;61865;50.232;18.614;2023-03-01T03:44:06;118.88;;;54.75;;
73585;SDS011;61865;50.232;18.614;2023-03-01T03:46:28;99.47;;;49.72;;
73585;SDS011;61865;50.232;18.614;2023-03-01T03:48:50;102.43;;;52.13;;
73585;SDS011;61865;50.232;18.614;2023-03-01T03:51:14;114.03;;;53.25;;
73585;SDS011;61865;50.232;18.614;2023-03-01T03:53:37;103.35;;;49.25;;
73585;SDS011;61865;50.232;18.614;2023-03-01T03:55:59;110.25;;;50.45;;
73585;SDS011;61865;50.232;18.614;2023-03-01T03:58:21;109.57;;;49.55;;
73585;SDS011;61865;50.232;18.614;2023-03-01T04:00:46;112.05;;;52.25;;
73585;SDS011;61865;50.232;18.614;2023-03-01T04:03:10;109.28;;;52.97;;
73585;SDS011;61865;50.232;18.614;2023-03-01T04:05:34;114.35;;;55.97;;
73585;SDS011;61865;50.232;18.614;2023-03-01T04:07:58;101.40;;;49.38;;
73585;SDS011;61865;50.232;18.614;2023-03-01T04:10:27;107.75;;;51.45;;
73585;SDS011;61865;50.232;18.614;2023-03-01T04:12:50;103.22;;;53.60;;
73585;SDS011;61865;50.232;18.614;2023-03-01T04:15:12;106.93;;;51.13;;
73585;SDS011;61865;50.232;18.614;2023-03-01T04:17:34;108.05;;;56.15;;
73585;SDS011;61865;50.232;18.614;2023-03-01T04:19:56;108.63;;;54.10;;
73585;SDS011;61865;50.232;18.614;2023-03-01T04:22:19;99.88;;;54.80;;
73585;SDS011;61865;50.232;18.614;2023-03-01T04:24:42;108.40;;;52.72;;
73585;SDS011;61865;50.232;18.614;2023-03-01T04:27:04;118.75;;;54.72;;
73585;SDS011;61865;50.232;18.614;2023-03-01T04:29:26;106.60;;;56.30;;
73585;SDS011;61865;50.232;18.614;2023-03-01T04:31:48;114.35;;;58.85;;
73585;SDS011;61865;50.232;18.614;2023-03-01T04:34:10;120.00;;;54.42;;
73585;SDS011;61865;50.232;18.614;2023-03-01T04:36:34;103.97;;;54.15;;
73585;SDS011;61865;50.232;18.614;2023-03-01T04:38:56;110.32;;;52.03;;
73585;SDS011;61865;50.232;18.614;2023-03-01T04:41:20;103.60;;;54.28;;
73585;SDS011;61865;50.232;18.614;2023-03-01T04:43:43;110.18;;;52.35;;
73585;SDS011;61865;50.232;18.614;2023-03-01T04:46:05;122.85;;;54.47;;
73585;SDS011;61865;50.232;18.614;2023-03-01T04:48:29;102.22;;;53.30;;
73585;SDS011;61865;50.232;18.614;2023-03-01T04:50:51;112.47;;;57.42;;
73585;SDS011;61865;50.232;18.614;2023-03-01T04:53:13;104.85;;;54.78;;
73585;SDS011;61865;50.232;18.614;2023-03-01T04:55:35;99.40;;;52.90;;
73585;SDS011;61865;50.232;18.614;2023-03-01T04:57:58;116.95;;;52.38;;
73585;SDS011;61865;50.232;18.614;2023-03-01T05:00:21;107.97;;;50.47;;
73585;SDS011;61865;50.232;18.614;2023-03-01T05:02:43;129.50;;;55.08;;
73585;SDS011;61865;50.232;18.614;2023-03-01T05:05:06;119.68;;;56.17;;
73585;SDS011;61865;50.232;18.614;2023-03-01T05:07:28;121.43;;;51.70;;
73585;SDS011;61865;50.232;18.614;2023-03-01T05:09:50;93.57;;;47.60;;
73585;SDS011;61865;50.232;18.614;2023-03-01T05:12:12;102.80;;;53.63;;
73585;SDS011;61865;50.232;18.614;2023-03-01T05:14:35;106.00;;;54.65;;
73585;SDS011;61865;50.232;18.614;2023-03-01T05:16:58;103.78;;;50.08;;
73585;SDS011;61865;50.232;18.614;2023-03-01T05:19:23;110.95;;;54.05;;
73585;SDS011;61865;50.232;18.614;2023-03-01T05:21:47;102.97;;;52.08;;
73585;SDS011;61865;50.232;18.614;2023-03-01T05:24:25;83.57;;;47.13;;
73585;SDS011;61865;50.232;18.614;2023-03-01T05:26:47;104.97;;;54.20;;
73585;SDS011;61865;50.232;18.614;2023-03-01T05:29:11;110.88;;;54.33;;
73585;SDS011;61865;50.232;18.614;2023-03-01T05:31:35;118.75;;;57.92;;
73585;SDS011;61865;50.232;18.614;2023-03-01T05:33:58;124.55;;;53.67;;
73585;SDS011;61865;50.232;18.614;2023-03-01T05:36:20;140.10;;;71.70;;
73585;SDS011;61865;50.232;18.614;2023-03-01T05:38:41;134.93;;;70.28;;
73585;SDS011;61865;50.232;18.614;2023-03-01T05:41:04;126.20;;;70.70;;
73585;SDS011;61865;50.232;18.614;2023-03-01T05:43:26;136.15;;;71.72;;
73585;SDS011;61865;50.232;18.614;2023-03-01T05:45:53;137.50;;;75.30;;
73585;SDS011;61865;50.232;18.614;2023-03-01T05:48:21;141.05;;;72.65;;
73585;SDS011;61865;50.232;18.614;2023-03-01T05:50:43;143.68;;;70.65;;
73585;SDS011;61865;50.232;18.614;2023-03-01T05:53:08;115.15;;;64.35;;
73585;SDS011;61865;50.232;18.614;2023-03-01T05:55:32;121.03;;;64.28;;
73585;SDS011;61865;50.232;18.614;2023-03-01T05:57:55;120.30;;;61.05;;
73585;SDS011;61865;50.232;18.614;2023-03-01T06:00:19;130.48;;;62.17;;
73585;SDS011;61865;50.232;18.614;2023-03-01T06:02:43;116.60;;;60.88;;
73585;SDS011;61865;50.232;18.614;2023-03-01T06:05:08;121.82;;;59.35;;
73585;SDS011;61865;50.232;18.614;2023-03-01T06:07:31;104.38;;;62.45;;
73585;SDS011;61865;50.232;18.614;2023-03-01T06:09:53;126.82;;;67.95;;
73585;SDS011;61865;50.232;18.614;2023-03-01T06:12:15;135.13;;;64.55;;
73585;SDS011;61865;50.232;18.614;2023-03-01T06:14:37;121.65;;;68.47;;
73585;SDS011;61865;50.232;18.614;2023-03-01T06:16:59;121.07;;;71.93;;
73585;SDS011;61865;50.232;18.614;2023-03-01T06:19:21;129.68;;;72.25;;
73585;SDS011;61865;50.232;18.614;2023-03-01T06:21:44;142.98;;;71.00;;
73585;SDS011;61865;50.232;18.614;2023-03-01T06:24:07;138.07;;;70.00;;
73585;SDS011;61865;50.232;18.614;2023-03-01T06:26:29;129.95;;;69.18;;
73585;SDS011;61865;50.232;18.614;2023-03-01T06:28:51;141.73;;;70.88;;
73585;SDS011;61865;50.232;18.614;2023-03-01T06:31:13;140.90;;;69.75;;
73585;SDS011;61865;50.232;18.614;2023-03-01T06:33:35;135.48;;;67.45;;
73585;SDS011;61865;50.232;18.614;2023-03-01T06:35:57;143.85;;;71.43;;
73585;SDS011;61865;50.232;18.614;2023-03-01T06:38:20;159.02;;;78.03;;
73585;SDS011;61865;50.232;18.614;2023-03-01T06:40:42;161.00;;;73.95;;
73585;SDS011;61865;50.232;18.614;2023-03-01T06:43:04;188.07;;;83.90;;
73585;SDS011;61865;50.232;18.614;2023-03-01T06:45:27;213.35;;;86.47;;
73585;SDS011;61865;50.232;18.614;2023-03-01T06:47:49;216.45;;;88.45;;
73585;SDS011;61865;50.232;18.614;2023-03-01T06:50:12;228.55;;;96.03;;
73585;SDS011;61865;50.232;18.614;2023-03-01T06:52:35;214.65;;;92.55;;
73585;SDS011;61865;50.232;18.614;2023-03-01T06:54:58;208.65;;;90.93;;
73585;SDS011;61865;50.232;18.614;2023-03-01T06:57:20;215.05;;;93.07;;
73585;SDS011;61865;50.232;18.614;2023-03-01T06:59:42;202.50;;;92.80;;
73585;SDS011;61865;50.232;18.614;2023-03-01T07:02:04;224.73;;;96.07;;
73585;SDS011;61865;50.232;18.614;2023-03-01T07:04:26;208.25;;;96.20;;
73585;SDS011;61865;50.232;18.614;2023-03-01T07:06:50;209.32;;;99.65;;
73585;SDS011;61865;50.232;18.614;2023-03-01T07:09:15;206.80;;;93.35;;
73585;SDS011;61865;50.232;18.614;2023-03-01T07:11:41;188.15;;;90.85;;
73585;SDS011;61865;50.232;18.614;2023-03-01T07:14:03;196.32;;;91.20;;
73585;SDS011;61865;50.232;18.614;2023-03-01T07:16:25;171.77;;;86.68;;
73585;SDS011;61865;50.232;18.614;2023-03-01T07:18:47;160.40;;;76.93;;
73585;SDS011;61865;50.232;18.614;2023-03-01T07:21:11;154.63;;;72.25;;
73585;SDS011;61865;50.232;18.614;2023-03-01T07:23:36;161.02;;;74.18;;
73585;SDS011;61865;50.232;18.614;2023-03-01T07:25:58;147.23;;;71.82;;
73585;SDS011;61865;50.232;18.614;2023-03-01T07:28:21;155.98;;;68.68;;
73585;SDS011;61865;50.232;18.614;2023-03-01T07:30:44;154.82;;;71.00;;
73585;SDS011;61865;50.232;18.614;2023-03-01T07:33:06;162.48;;;74.97;;
73585;SDS011;61865;50.232;18.614;2023-03-01T07:35:28;160.48;;;74.75;;
73585;SDS011;61865;50.232;18.614;2023-03-01T07:37:50;150.90;;;71.95;;
73585;SDS011;61865;50.232;18.614;2023-03-01T07:40:12;151.25;;;69.45;;
73585;SDS011;61865;50.232;18.614;2023-03-01T07:42:34;119.75;;;63.55;;
73585;SDS011;61865;50.232;18.614;2023-03-01T07:44:57;133.77;;;65.18;;
73585;SDS011;61865;50.232;18.614;2023-03-01T07:47:21;150.95;;;66.70;;
73585;SDS011;61865;50.232;18.614;2023-03-01T07:49:43;147.60;;;67.05;;
73585;SDS011;61865;50.232;18.614;2023-03-01T07:52:05;137.65;;;67.28;;
73585;SDS011;61865;50.232;18.614;2023-03-01T07:54:26;133.50;;;63.15;;
73585;SDS011;61865;50.232;18.614;2023-03-01T07:56:48;132.00;;;60.80;;
73585;SDS011;61865;50.232;18.614;2023-03-01T07:59:11;153.40;;;66.45;;
73585;SDS011;61865;50.232;18.614;2023-03-01T08:01:34;138.15;;;65.88;;
73585;SDS011;61865;50.232;18.614;2023-03-01T08:03:56;135.90;;;65.78;;
73585;SDS011;61865;50.232;18.614;2023-03-01T08:06:18;122.65;;;60.38;;
73585;SDS011;61865;50.232;18.614;2023-03-01T08:08:41;129.70;;;60.15;;
73585;SDS011;61865;50.232;18.614;2023-03-01T08:11:04;130.63;;;61.97;;
73585;SDS011;61865;50.232;18.614;2023-03-01T08:13:29;127.70;;;59.03;;
73585;SDS011;61865;50.232;18.614;2023-03-01T08:15:51;120.00;;;57.15;;
73585;SDS011;61865;50.232;18.614;2023-03-01T08:18:15;122.22;;;56.30;;
73585;SDS011;61865;50.232;18.614;2023-03-01T08:20:37;120.30;;;54.63;;
73585;SDS011;61865;50.232;18.614;2023-03-01T08:22:59;118.45;;;56.97;;
73585;SDS011;61865;50.232;18.614;2023-03-01T08:25:21;111.95;;;53.92;;
73585;SDS011;61865;50.232;18.614;2023-03-01T08:27:43;118.35;;;56.58;;
73585;SDS011;61865;50.232;18.614;2023-03-01T08:30:06;114.45;;;54.15;;
73585;SDS011;61865;50.232;18.614;2023-03-01T08:32:28;110.40;;;53.67;;
73585;SDS011;61865;50.232;18.614;2023-03-01T08:34:52;99.53;;;49.90;;
73585;SDS011;61865;50.232;18.614;2023-03-01T08:37:14;92.25;;;43.00;;
73585;SDS011;61865;50.232;18.614;2023-03-01T08:39:36;88.28;;;41.60;;
73585;SDS011;61865;50.232;18.614;2023-03-01T08:41:58;84.57;;;41.40;;
73585;SDS011;61865;50.232;18.614;2023-03-01T08:44:20;94.35;;;44.53;;
73585;SDS011;61865;50.232;18.614;2023-03-01T08:46:42;100.38;;;43.08;;
73585;SDS011;61865;50.232;18.614;2023-03-01T08:49:05;77.53;;;35.97;;
73585;SDS011;61865;50.232;18.614;2023-03-01T08:51:30;59.80;;;29.88;;
73585;SDS011;61865;50.232;18.614;2023-03-01T08:53:56;60.55;;;32.63;;
73585;SDS011;61865;50.232;18.614;2023-03-01T08:56:18;63.88;;;30.20;;
73585;SDS011;61865;50.232;18.614;2023-03-01T08:58:43;58.28;;;31.83;;
73585;SDS011;61865;50.232;18.614;2023-03-01T09:01:09;74.03;;;33.75;;
73585;SDS011;61865;50.232;18.614;2023-03-01T09:03:31;67.53;;;32.80;;
73585;SDS011;61865;50.232;18.614;2023-03-01T09:05:53;53.13;;;28.45;;
73585;SDS011;61865;50.232;18.614;2023-03-01T09:08:23;45.45;;;22.48;;
73585;SDS011;61865;50.232;18.614;2023-03-01T09:10:45;59.85;;;29.25;;
73585;SDS011;61865;50.232;18.614;2023-03-01T09:13:07;55.90;;;25.50;;
73585;SDS011;61865;50.232;18.614;2023-03-01T09:15:29;48.85;;;24.67;;
73585;SDS011;61865;50.232;18.614;2023-03-01T09:17:52;44.58;;;24.55;;
73585;SDS011;61865;50.232;18.614;2023-03-01T09:20:15;39.90;;;22.80;;
73585;SDS011;61865;50.232;18.614;2023-03-01T09:22:37;47.63;;;24.80;;
73585;SDS011;61865;50.232;18.614;2023-03-01T09:25:00;38.03;;;22.33;;
73585;SDS011;61865;50.232;18.614;2023-03-01T09:27:22;51.42;;;27.27;;
73585;SDS011;61865;50.232;18.614;2023-03-01T09:29:45;53.83;;;28.75;;
73585;SDS011;61865;50.232;18.614;2023-03-01T09:32:07;39.67;;;24.05;;
73585;SDS011;61865;50.232;18.614;2023-03-01T09:34:29;35.58;;;21.15;;
73585;SDS011;61865;50.232;18.614;2023-03-01T09:37:12;38.28;;;23.17;;
73585;SDS011;61865;50.232;18.614;2023-03-01T09:39:35;47.15;;;24.83;;
73585;SDS011;61865;50.232;18.614;2023-03-01T09:41:59;48.05;;;25.92;;
73585;SDS011;61865;50.232;18.614;2023-03-01T09:44:27;41.95;;;25.73;;
73585;SDS011;61865;50.232;18.614;2023-03-01T09:46:54;31.73;;;17.02;;
73585;SDS011;61865;50.232;18.614;2023-03-01T09:49:17;29.23;;;17.08;;
73585;SDS011;61865;50.232;18.614;2023-03-01T09:51:42;40.45;;;17.45;;
73585;SDS011;61865;50.232;18.614;2023-03-01T09:54:15;34.80;;;17.60;;
73585;SDS011;61865;50.232;18.614;2023-03-01T09:56:37;34.78;;;17.42;;
73585;SDS011;61865;50.232;18.614;2023-03-01T09:59:10;31.92;;;18.48;;
73585;SDS011;61865;50.232;18.614;2023-03-01T10:01:44;43.47;;;17.50;;
73585;SDS011;61865;50.232;18.614;2023-03-01T10:04:22;39.53;;;17.73;;
73585;SDS011;61865;50.232;18.614;2023-03-01T10:06:51;40.88;;;18.58;;
73585;SDS011;61865;50.232;18.614;2023-03-01T10:09:24;36.75;;;19.00;;
73585;SDS011;61865;50.232;18.614;2023-03-01T10:11:47;37.53;;;18.95;;
73585;SDS011;61865;50.232;18.614;2023-03-01T10:14:15;37.15;;;19.75;;
73585;SDS011;61865;50.232;18.614;2023-03-01T10:16:52;39.55;;;20.85;;
73585;SDS011;61865;50.232;18.614;2023-03-01T10:19:22;44.33;;;19.77;;
73585;SDS011;61865;50.232;18.614;2023-03-01T10:21:48;37.25;;;20.08;;
73585;SDS011;61865;50.232;18.614;2023-03-01T10:24:13;47.13;;;20.95;;
73585;SDS011;61865;50.232;18.614;2023-03-01T10:26:42;41.85;;;21.42;;
73585;SDS011;61865;50.232;18.614;2023-03-01T10:29:10;43.00;;;22.65;;
73585;SDS011;61865;50.232;18.614;2023-03-01T10:31:40;48.42;;;23.08;;
73585;SDS011;61865;50.232;18.614;2023-03-01T10:34:07;35.42;;;20.10;;
73585;SDS011;61865;50.232;18.614;2023-03-01T10:36:32;39.65;;;21.88;;
73585;SDS011;61865;50.232;18.614;2023-03-01T10:38:55;40.17;;;20.70;;
73585;SDS011;61865;50.232;18.614;2023-03-01T10:41:18;35.15;;;18.33;;
73585;SDS011;61865;50.232;18.614;2023-03-01T10:43:43;32.33;;;16.42;;
73585;SDS011;61865;50.232;18.614;2023-03-01T10:46:14;35.85;;;19.33;;
73585;SDS011;61865;50.232;18.614;2023-03-01T10:48:46;34.28;;;18.80;;
73585;SDS011;61865;50.232;18.614;2023-03-01T10:51:34;39.33;;;19.02;;
73585;SDS011;61865;50.232;18.614;2023-03-01T10:53:56;33.38;;;19.77;;
73585;SDS011;61865;50.232;18.614;2023-03-01T10:56:18;34.85;;;20.55;;
73585;SDS011;61865;50.232;18.614;2023-03-01T10:58:41;35.90;;;18.90;;
73585;SDS011;61865;50.232;18.614;2023-03-01T11:01:25;31.95;;;18.38;;
73585;SDS011;61865;50.232;18.614;2023-03-01T11:04:02;35.25;;;18.58;;
73585;SDS011;61865;50.232;18.614;2023-03-01T11:06:32;32.50;;;17.40;;
73585;SDS011;61865;50.232;18.614;2023-03-01T11:08:55;32.90;;;18.30;;
73585;SDS011;61865;50.232;18.614;2023-03-01T11:11:19;39.63;;;18.00;;
73585;SDS011;61865;50.232;18.614;2023-03-01T11:13:49;35.58;;;18.40;;
73585;SDS011;61865;50.232;18.614;2023-03-01T11:16:17;31.73;;;17.42;;
73585;SDS011;61865;50.232;18.614;2023-03-01T11:18:46;36.00;;;18.63;;
73585;SDS011;61865;50.232;18.614;2023-03-01T11:21:20;31.48;;;18.55;;
73585;SDS011;61865;50.232;18.614;2023-03-01T11:23:41;35.13;;;18.77;;
73585;SDS011;61865;50.232;18.614;2023-03-01T11:26:07;35.85;;;17.67;;
73585;SDS011;61865;50.232;18.614;2023-03-01T11:28:30;37.03;;;18.55;;
73585;SDS011;61865;50.232;18.614;2023-03-01T11:30:54;33.78;;;17.73;;
73585;SDS011;61865;50.232;18.614;2023-03-01T11:33:21;32.47;;;17.13;;
73585;SDS011;61865;50.232;18.614;2023-03-01T11:35:53;32.55;;;17.27;;
73585;SDS011;61865;50.232;18.614;2023-03-01T11:38:21;31.55;;;15.75;;
73585;SDS011;61865;50.232;18.614;2023-03-01T11:40:46;30.85;;;17.85;;
73585;SDS011;61865;50.232;18.614;2023-03-01T11:43:15;31.73;;;18.42;;
73585;SDS011;61865;50.232;18.614;2023-03-01T11:45:45;28.83;;;17.55;;
73585;SDS011;61865;50.232;18.614;2023-03-01T11:48:23;31.25;;;17.85;;
73585;SDS011;61865;50.232;18.614;2023-03-01T11:51:07;32.88;;;18.63;;
73585;SDS011;61865;50.232;18.614;2023-03-01T11:53:36;26.52;;;15.13;;
73585;SDS011;61865;50.232;18.614;2023-03-01T11:56:16;25.20;;;14.30;;
73585;SDS011;61865;50.232;18.614;2023-03-01T11:58:54;34.20;;;18.40;;
73585;SDS011;61865;50.232;18.614;2023-03-01T12:01:38;28.10;;;17.08;;
73585;SDS011;61865;50.232;18.614;2023-03-01T12:07:05;30.80;;;15.90;;
73585;SDS011;61865;50.232;18.614;2023-03-01T12:09:38;26.10;;;14.55;;
73585;SDS011;61865;50.232;18.614;2023-03-01T12:14:53;27.58;;;15.20;;
73585;SDS011;61865;50.232;18.614;2023-03-01T12:17:29;35.45;;;17.42;;
73585;SDS011;61865;50.232;18.614;2023-03-01T12:20:11;25.25;;;14.95;;
73585;SDS011;61865;50.232;18.614;2023-03-01T12:22:46;34.97;;;16.10;;
73585;SDS011;61865;50.232;18.614;2023-03-01T12:25:21;29.52;;;14.35;;
73585;SDS011;61865;50.232;18.614;2023-03-01T12:27:51;31.35;;;14.95;;
73585;SDS011;61865;50.232;18.614;2023-03-01T12:30:28;22.23;;;14.10;;
73585;SDS011;61865;50.232;18.614;2023-03-01T12:33:06;24.90;;;14.55;;
73585;SDS011;61865;50.232;18.614;2023-03-01T12:35:48;23.95;;;13.23;;
73585;SDS011;61865;50.232;18.614;2023-03-01T12:38:33;24.42;;;14.55;;
73585;SDS011;61865;50.232;18.614;2023-03-01T12:46:57;36.53;;;16.55;;
73585;SDS011;61865;50.232;18.614;2023-03-01T12:49:36;30.52;;;16.20;;
73585;SDS011;61865;50.232;18.614;2023-03-01T12:52:10;29.15;;;14.75;;
73585;SDS011;61865;50.232;18.614;2023-03-01T12:54:38;26.75;;;15.23;;
73585;SDS011;61865;50.232;18.614;2023-03-01T12:57:02;27.85;;;15.00;;
73585;SDS011;61865;50.232;18.614;2023-03-01T12:59:31;30.80;;;16.38;;
73585;SDS011;61865;50.232;18.614;2023-03-01T13:02:01;25.30;;;12.02;;
73585;SDS011;61865;50.232;18.614;2023-03-01T13:04:35;29.90;;;15.70;;
73585;SDS011;61865;50.232;18.614;2023-03-01T13:07:11;28.77;;;14.52;;
73585;SDS011;61865;50.232;18.614;2023-03-01T13:09:43;25.98;;;14.35;;
73585;SDS011;61865;50.232;18.614;2023-03-01T13:15:24;32.85;;;15.10;;
73585;SDS011;61865;50.232;18.614;2023-03-01T13:17:48;29.20;;;14.75;;
73585;SDS011;61865;50.232;18.614;2023-03-01T13:20:12;24.40;;;12.60;;
73585;SDS011;61865;50.232;18.614;2023-03-01T13:22:36;26.63;;;12.70;;
73585;SDS011;61865;50.232;18.614;2023-03-01T13:27:45;24.52;;;14.57;;
73585;SDS011;61865;50.232;18.614;2023-03-01T13:36:00;23.65;;;14.05;;
73585;SDS011;61865;50.232;18.614;2023-03-01T13:38:41;28.55;;;14.93;;
73585;SDS011;61865;50.232;18.614;2023-03-01T13:41:08;25.10;;;14.55;;
73585;SDS011;61865;50.232;18.614;2023-03-01T13:43:31;23.20;;;13.13;;
73585;SDS011;61865;50.232;18.614;2023-03-01T13:45:55;23.83;;;13.15;;
73585;SDS011;61865;50.232;18.614;2023-03-01T13:48:21;26.63;;;14.90;;
73585;SDS011;61865;50.232;18.614;2023-03-01T13:50:47;32.30;;;14.02;;
73585;SDS011;61865;50.232;18.614;2023-03-01T13:53:13;31.23;;;12.07;;
73585;SDS011;61865;50.232;18.614;2023-03-01T13:55:41;27.92;;;14.07;;
73585;SDS011;61865;50.232;18.614;2023-03-01T13:58:13;22.23;;;12.65;;
73585;SDS011;61865;50.232;18.614;2023-03-01T14:00:41;17.35;;;11.10;;
73585;SDS011;61865;50.232;18.614;2023-03-01T14:03:04;19.35;;;11.27;;
73585;SDS011;61865;50.232;18.614;2023-03-01T14:05:34;17.10;;;10.90;;
73585;SDS011;61865;50.232;18.614;2023-03-01T14:07:56;18.73;;;11.02;;
73585;SDS011;61865;50.232;18.614;2023-03-01T14:10:18;23.13;;;13.38;;
73585;SDS011;61865;50.232;18.614;2023-03-01T14:12:42;26.83;;;14.15;;
73585;SDS011;61865;50.232;18.614;2023-03-01T14:15:15;27.42;;;14.07;;